Slochteren, Netherlands
Current Conditions -  °F | °C
As of 11:25 PM on Sunday 23 Nov 2014 (Local Time) from EHGG Reporting Station
Haze Haze  
Wind Chill: 52°   Ceiling: 700
Heat Index: 52°   Visibility: 1.3mi
Dew Point: 50°   Wind: 8mph
Humidity: 94%   Direction: 310°NW
Pressure: 29.94"   Gusts: NA
Location:  53.22°N, 6.81°E
Report Text: EHGG 232225Z AUTO 31007KT 280V340 2200 BR FEW004 SCT005 BKN00711/10 Q1014
Loading
Personal Weather Stations






























Interactive Weather Map New forecast layout! Learn more

10-Day Weather Forecast

Advertisements
Track Severe Weather on mobile